This is the latest recevied weather packets stored in our database for station/object N8RJC-13. If no packets are shown the sender has not sent any weather packets the latest 10 day(s).
| Time | Temp. | Humidity | Pressure | Rain* | Wind** | Luminosity | Snow |
|---|---|---|---|---|---|---|---|
| 1778080940 | 12.22° C | 68% | 990 hPa | 0 mm | 0.89 m/s, 7° | - | - |
| 1778080881 | 12.22° C | 68% | 990 hPa | 0 mm | 0.89 m/s, 7° | - | - |
| 1778080821 | 12.22° C | 68% | 989.9 hPa | 0 mm | 1.79 m/s, 359° | - | - |
| 1778080761 | 12.22° C | 68% | 989.9 hPa | 0 mm | 1.79 m/s, 359° | - | - |
| 1778080700 | 12.22° C | 68% | 989.9 hPa | 0 mm | 1.79 m/s, 359° | - | - |
| 1778080641 | 12.22° C | 68% | 989.9 hPa | 0 mm | 1.79 m/s, 359° | - | - |
| 1778080580 | 12.22° C | 68% | 989.9 hPa | 0 mm | 1.79 m/s, 359° | - | - |
| 1778080461 | 12.78° C | 68% | 989.5 hPa | 0 mm | 2.24 m/s, 325° | - | - |
| 1778080401 | 12.78° C | 68% | 989.5 hPa | 0 mm | 2.24 m/s, 325° | - | - |
| 1778080341 | 12.78° C | 68% | 989.5 hPa | 0 mm | 2.24 m/s, 325° | - | - |
| 1778080281 | 12.78° C | 68% | 989.5 hPa | 0 mm | 2.24 m/s, 325° | - | - |
| 1778080221 | 11.67° C | 70% | 989.5 hPa | 0 mm | 0.89 m/s, 30° | - | - |
| 1778080161 | 11.67° C | 70% | 989.5 hPa | 0 mm | 0.89 m/s, 30° | - | - |
| 1778080101 | 11.67° C | 70% | 989.5 hPa | 0 mm | 0.89 m/s, 30° | - | - |
| 1778080041 | 11.67° C | 70% | 989.5 hPa | 0 mm | 0.89 m/s, 30° | - | - |
| 1778079981 | 11.67° C | 70% | 989.5 hPa | 0 mm | 0.89 m/s, 30° | - | - |
| 1778079921 | 11.67° C | 70% | 989.4 hPa | 0 mm | 2.24 m/s, 346° | - | - |
| 1778079861 | 11.67° C | 70% | 989.4 hPa | 0 mm | 2.24 m/s, 346° | - | - |
| 1778079801 | 11.67° C | 70% | 989.4 hPa | 0 mm | 2.24 m/s, 346° | - | - |
| 1778079741 | 11.67° C | 70% | 989.4 hPa | 0 mm | 2.24 m/s, 346° | - | - |
| 1778079681 | 11.67° C | 70% | 989.4 hPa | 0 mm | 2.24 m/s, 346° | - | - |
| 1778079621 | 11.11° C | 72% | 989.1 hPa | 0 mm | 1.79 m/s, 334° | - | - |
| 1778079561 | 11.11° C | 72% | 989.1 hPa | 0 mm | 1.79 m/s, 334° | - | - |
| 1778079500 | 11.11° C | 72% | 989.1 hPa | 0 mm | 1.79 m/s, 334° | - | - |
| 1778079441 | 11.11° C | 72% | 989.1 hPa | 0 mm | 1.79 m/s, 334° | - | - |
* Rain latest hour (hover to see other rain measurements)
** Current wind speed in m/s (hover to see current wind gust speed)